sensor_id;sensor_type;location;lat;lon;timestamp;P1;durP1;ratioP1;P2;durP2;ratioP2
3189;SDS011;1606;51.946;10.558;2022-10-22T00:00:54;10.77;;;3.13;;
3189;SDS011;1606;51.946;10.558;2022-10-22T00:03:22;8.70;;;3.53;;
3189;SDS011;1606;51.946;10.558;2022-10-22T00:05:50;7.47;;;2.90;;
3189;SDS011;1606;51.946;10.558;2022-10-22T00:08:19;8.60;;;3.10;;
3189;SDS011;1606;51.946;10.558;2022-10-22T00:10:47;9.03;;;3.60;;
3189;SDS011;1606;51.946;10.558;2022-10-22T00:13:15;9.70;;;3.80;;
3189;SDS011;1606;51.946;10.558;2022-10-22T00:15:43;10.33;;;3.47;;
3189;SDS011;1606;51.946;10.558;2022-10-22T00:18:11;8.87;;;3.43;;
3189;SDS011;1606;51.946;10.558;2022-10-22T00:20:39;11.47;;;2.93;;
3189;SDS011;1606;51.946;10.558;2022-10-22T00:23:07;7.97;;;3.13;;
3189;SDS011;1606;51.946;10.558;2022-10-22T00:25:36;8.57;;;3.30;;
3189;SDS011;1606;51.946;10.558;2022-10-22T00:28:04;7.77;;;2.83;;
3189;SDS011;1606;51.946;10.558;2022-10-22T00:30:32;6.80;;;2.40;;
3189;SDS011;1606;51.946;10.558;2022-10-22T00:32:59;7.80;;;2.80;;
3189;SDS011;1606;51.946;10.558;2022-10-22T00:35:27;9.63;;;2.73;;
3189;SDS011;1606;51.946;10.558;2022-10-22T00:37:55;8.73;;;3.10;;
3189;SDS011;1606;51.946;10.558;2022-10-22T00:40:23;13.30;;;4.07;;
3189;SDS011;1606;51.946;10.558;2022-10-22T00:42:53;7.17;;;2.33;;
3189;SDS011;1606;51.946;10.558;2022-10-22T00:45:22;8.67;;;2.27;;
3189;SDS011;1606;51.946;10.558;2022-10-22T00:47:52;10.73;;;3.17;;
3189;SDS011;1606;51.946;10.558;2022-10-22T00:50:25;12.83;;;3.30;;
3189;SDS011;1606;51.946;10.558;2022-10-22T00:52:55;8.90;;;3.13;;
3189;SDS011;1606;51.946;10.558;2022-10-22T00:55:24;7.70;;;3.07;;
3189;SDS011;1606;51.946;10.558;2022-10-22T00:57:55;7.80;;;3.43;;
3189;SDS011;1606;51.946;10.558;2022-10-22T01:00:24;10.67;;;3.73;;
3189;SDS011;1606;51.946;10.558;2022-10-22T01:02:53;11.77;;;2.93;;
3189;SDS011;1606;51.946;10.558;2022-10-22T01:05:21;10.40;;;2.63;;
3189;SDS011;1606;51.946;10.558;2022-10-22T01:07:50;12.20;;;3.08;;
3189;SDS011;1606;51.946;10.558;2022-10-22T01:10:23;9.27;;;2.80;;
3189;SDS011;1606;51.946;10.558;2022-10-22T01:13:14;7.97;;;2.60;;
3189;SDS011;1606;51.946;10.558;2022-10-22T01:15:50;11.50;;;2.70;;
3189;SDS011;1606;51.946;10.558;2022-10-22T01:18:27;8.23;;;3.07;;
3189;SDS011;1606;51.946;10.558;2022-10-22T01:21:04;8.13;;;3.00;;
3189;SDS011;1606;51.946;10.558;2022-10-22T01:23:58;8.17;;;2.77;;
3189;SDS011;1606;51.946;10.558;2022-10-22T01:26:55;7.10;;;2.90;;
3189;SDS011;1606;51.946;10.558;2022-10-22T01:29:44;13.20;;;3.70;;
3189;SDS011;1606;51.946;10.558;2022-10-22T01:32:16;8.07;;;3.43;;
3189;SDS011;1606;51.946;10.558;2022-10-22T01:34:47;9.23;;;3.73;;
3189;SDS011;1606;51.946;10.558;2022-10-22T01:37:18;9.90;;;3.60;;
3189;SDS011;1606;51.946;10.558;2022-10-22T01:39:50;7.77;;;3.30;;
3189;SDS011;1606;51.946;10.558;2022-10-22T01:42:19;10.00;;;4.30;;
3189;SDS011;1606;51.946;10.558;2022-10-22T01:44:48;9.97;;;3.57;;
3189;SDS011;1606;51.946;10.558;2022-10-22T01:47:19;8.60;;;3.40;;
3189;SDS011;1606;51.946;10.558;2022-10-22T01:50:08;9.67;;;2.60;;
3189;SDS011;1606;51.946;10.558;2022-10-22T01:52:59;8.87;;;3.40;;
3189;SDS011;1606;51.946;10.558;2022-10-22T01:55:46;8.03;;;3.40;;
3189;SDS011;1606;51.946;10.558;2022-10-22T01:58:26;8.40;;;2.87;;
3189;SDS011;1606;51.946;10.558;2022-10-22T02:01:04;8.60;;;3.70;;
3189;SDS011;1606;51.946;10.558;2022-10-22T02:03:39;7.77;;;3.10;;
3189;SDS011;1606;51.946;10.558;2022-10-22T02:06:12;8.97;;;3.40;;
3189;SDS011;1606;51.946;10.558;2022-10-22T02:08:43;8.40;;;4.57;;
3189;SDS011;1606;51.946;10.558;2022-10-22T02:11:12;10.93;;;3.80;;
3189;SDS011;1606;51.946;10.558;2022-10-22T02:13:42;8.30;;;4.33;;
3189;SDS011;1606;51.946;10.558;2022-10-22T02:16:15;11.10;;;4.43;;
3189;SDS011;1606;51.946;10.558;2022-10-22T02:18:45;11.93;;;5.90;;
3189;SDS011;1606;51.946;10.558;2022-10-22T02:21:16;9.87;;;4.13;;
3189;SDS011;1606;51.946;10.558;2022-10-22T02:23:44;9.37;;;4.70;;
3189;SDS011;1606;51.946;10.558;2022-10-22T02:26:13;11.67;;;4.73;;
3189;SDS011;1606;51.946;10.558;2022-10-22T02:28:51;10.90;;;3.47;;
3189;SDS011;1606;51.946;10.558;2022-10-22T02:31:26;9.50;;;4.17;;
3189;SDS011;1606;51.946;10.558;2022-10-22T02:33:58;8.60;;;3.80;;
3189;SDS011;1606;51.946;10.558;2022-10-22T02:36:30;9.10;;;3.60;;
3189;SDS011;1606;51.946;10.558;2022-10-22T02:38:58;11.33;;;3.90;;
3189;SDS011;1606;51.946;10.558;2022-10-22T02:41:27;11.07;;;3.73;;
3189;SDS011;1606;51.946;10.558;2022-10-22T02:43:56;8.97;;;3.47;;
3189;SDS011;1606;51.946;10.558;2022-10-22T02:46:23;9.57;;;4.30;;
3189;SDS011;1606;51.946;10.558;2022-10-22T02:48:53;9.70;;;4.00;;
3189;SDS011;1606;51.946;10.558;2022-10-22T02:51:21;8.50;;;3.60;;
3189;SDS011;1606;51.946;10.558;2022-10-22T02:53:49;8.90;;;3.23;;
3189;SDS011;1606;51.946;10.558;2022-10-22T02:56:17;8.87;;;3.20;;
3189;SDS011;1606;51.946;10.558;2022-10-22T02:58:44;9.63;;;3.33;;
3189;SDS011;1606;51.946;10.558;2022-10-22T03:01:12;11.73;;;3.93;;
3189;SDS011;1606;51.946;10.558;2022-10-22T03:03:42;11.20;;;3.70;;
3189;SDS011;1606;51.946;10.558;2022-10-22T03:06:10;8.57;;;3.63;;
3189;SDS011;1606;51.946;10.558;2022-10-22T03:08:38;13.80;;;3.70;;
3189;SDS011;1606;51.946;10.558;2022-10-22T03:11:06;11.10;;;4.27;;
3189;SDS011;1606;51.946;10.558;2022-10-22T03:13:34;8.00;;;3.50;;
3189;SDS011;1606;51.946;10.558;2022-10-22T03:16:02;8.57;;;4.20;;
3189;SDS011;1606;51.946;10.558;2022-10-22T03:18:30;9.47;;;3.67;;
3189;SDS011;1606;51.946;10.558;2022-10-22T03:21:03;10.13;;;3.30;;
3189;SDS011;1606;51.946;10.558;2022-10-22T03:23:36;8.90;;;3.80;;
3189;SDS011;1606;51.946;10.558;2022-10-22T03:26:05;8.10;;;3.57;;
3189;SDS011;1606;51.946;10.558;2022-10-22T03:28:33;9.80;;;4.60;;
3189;SDS011;1606;51.946;10.558;2022-10-22T03:31:02;7.53;;;3.30;;
3189;SDS011;1606;51.946;10.558;2022-10-22T03:33:30;14.10;;;4.80;;
3189;SDS011;1606;51.946;10.558;2022-10-22T03:35:57;11.10;;;4.10;;
3189;SDS011;1606;51.946;10.558;2022-10-22T03:38:28;12.83;;;4.13;;
3189;SDS011;1606;51.946;10.558;2022-10-22T03:40:59;9.87;;;5.60;;
3189;SDS011;1606;51.946;10.558;2022-10-22T03:43:27;11.67;;;3.93;;
3189;SDS011;1606;51.946;10.558;2022-10-22T03:45:55;8.80;;;3.90;;
3189;SDS011;1606;51.946;10.558;2022-10-22T03:48:23;10.30;;;5.20;;
3189;SDS011;1606;51.946;10.558;2022-10-22T03:50:50;15.80;;;5.93;;
3189;SDS011;1606;51.946;10.558;2022-10-22T03:53:18;13.00;;;6.50;;
3189;SDS011;1606;51.946;10.558;2022-10-22T03:55:48;11.97;;;6.30;;
3189;SDS011;1606;51.946;10.558;2022-10-22T03:58:16;14.90;;;6.30;;
3189;SDS011;1606;51.946;10.558;2022-10-22T04:00:43;10.80;;;5.60;;
3189;SDS011;1606;51.946;10.558;2022-10-22T04:03:11;10.50;;;6.00;;
3189;SDS011;1606;51.946;10.558;2022-10-22T04:05:39;13.23;;;6.40;;
3189;SDS011;1606;51.946;10.558;2022-10-22T04:08:07;10.40;;;6.70;;
3189;SDS011;1606;51.946;10.558;2022-10-22T04:10:35;16.93;;;7.33;;
3189;SDS011;1606;51.946;10.558;2022-10-22T04:13:04;13.13;;;7.87;;
3189;SDS011;1606;51.946;10.558;2022-10-22T04:15:32;11.73;;;7.23;;
3189;SDS011;1606;51.946;10.558;2022-10-22T04:17:59;15.10;;;7.30;;
3189;SDS011;1606;51.946;10.558;2022-10-22T04:20:27;12.47;;;7.13;;
3189;SDS011;1606;51.946;10.558;2022-10-22T04:22:55;11.33;;;5.47;;
3189;SDS011;1606;51.946;10.558;2022-10-22T04:25:23;19.20;;;7.63;;
3189;SDS011;1606;51.946;10.558;2022-10-22T04:27:51;13.53;;;7.33;;
3189;SDS011;1606;51.946;10.558;2022-10-22T04:30:20;12.33;;;8.20;;
3189;SDS011;1606;51.946;10.558;2022-10-22T04:32:47;15.63;;;8.47;;
3189;SDS011;1606;51.946;10.558;2022-10-22T04:35:15;11.90;;;7.77;;
3189;SDS011;1606;51.946;10.558;2022-10-22T04:37:43;14.30;;;10.40;;
3189;SDS011;1606;51.946;10.558;2022-10-22T04:40:11;12.07;;;7.50;;
3189;SDS011;1606;51.946;10.558;2022-10-22T04:42:39;12.97;;;8.20;;
3189;SDS011;1606;51.946;10.558;2022-10-22T04:45:07;15.63;;;8.75;;
3189;SDS011;1606;51.946;10.558;2022-10-22T04:47:37;12.47;;;7.40;;
3189;SDS011;1606;51.946;10.558;2022-10-22T04:50:06;18.63;;;6.90;;
3189;SDS011;1606;51.946;10.558;2022-10-22T04:52:34;13.00;;;7.17;;
3189;SDS011;1606;51.946;10.558;2022-10-22T04:55:02;16.67;;;7.43;;
3189;SDS011;1606;51.946;10.558;2022-10-22T04:57:30;12.57;;;7.30;;
3189;SDS011;1606;51.946;10.558;2022-10-22T04:59:58;10.27;;;6.13;;
3189;SDS011;1606;51.946;10.558;2022-10-22T05:02:26;12.07;;;6.47;;
3189;SDS011;1606;51.946;10.558;2022-10-22T05:04:55;12.60;;;6.40;;
3189;SDS011;1606;51.946;10.558;2022-10-22T05:07:23;11.87;;;6.10;;
3189;SDS011;1606;51.946;10.558;2022-10-22T05:09:51;13.20;;;7.70;;
3189;SDS011;1606;51.946;10.558;2022-10-22T05:12:19;19.33;;;7.40;;
3189;SDS011;1606;51.946;10.558;2022-10-22T05:14:47;16.30;;;8.50;;
3189;SDS011;1606;51.946;10.558;2022-10-22T05:17:15;13.27;;;6.47;;
3189;SDS011;1606;51.946;10.558;2022-10-22T05:19:43;13.90;;;8.80;;
3189;SDS011;1606;51.946;10.558;2022-10-22T05:22:12;11.70;;;6.77;;
3189;SDS011;1606;51.946;10.558;2022-10-22T05:24:40;11.50;;;6.67;;
3189;SDS011;1606;51.946;10.558;2022-10-22T05:27:08;16.27;;;7.47;;
3189;SDS011;1606;51.946;10.558;2022-10-22T05:29:35;13.37;;;6.33;;
3189;SDS011;1606;51.946;10.558;2022-10-22T05:32:03;11.40;;;6.47;;
3189;SDS011;1606;51.946;10.558;2022-10-22T05:34:31;16.50;;;7.33;;
3189;SDS011;1606;51.946;10.558;2022-10-22T05:37:01;17.03;;;6.67;;
3189;SDS011;1606;51.946;10.558;2022-10-22T05:39:30;12.73;;;6.23;;
3189;SDS011;1606;51.946;10.558;2022-10-22T05:42:01;10.23;;;6.27;;
3189;SDS011;1606;51.946;10.558;2022-10-22T05:44:29;13.47;;;6.63;;
3189;SDS011;1606;51.946;10.558;2022-10-22T05:46:57;12.03;;;5.90;;
3189;SDS011;1606;51.946;10.558;2022-10-22T05:49:25;12.73;;;6.47;;
3189;SDS011;1606;51.946;10.558;2022-10-22T05:51:53;13.10;;;6.53;;
3189;SDS011;1606;51.946;10.558;2022-10-22T05:54:21;10.33;;;5.63;;
3189;SDS011;1606;51.946;10.558;2022-10-22T05:56:50;13.33;;;5.03;;
3189;SDS011;1606;51.946;10.558;2022-10-22T05:59:18;11.80;;;4.60;;
3189;SDS011;1606;51.946;10.558;2022-10-22T06:01:45;11.77;;;5.77;;
3189;SDS011;1606;51.946;10.558;2022-10-22T06:04:13;10.33;;;5.33;;
3189;SDS011;1606;51.946;10.558;2022-10-22T06:06:43;13.33;;;5.00;;
3189;SDS011;1606;51.946;10.558;2022-10-22T06:09:14;19.00;;;6.17;;
3189;SDS011;1606;51.946;10.558;2022-10-22T06:11:44;17.77;;;5.70;;
3189;SDS011;1606;51.946;10.558;2022-10-22T06:14:14;16.63;;;5.50;;
3189;SDS011;1606;51.946;10.558;2022-10-22T06:16:44;14.73;;;5.60;;
3189;SDS011;1606;51.946;10.558;2022-10-22T06:19:13;9.53;;;4.47;;
3189;SDS011;1606;51.946;10.558;2022-10-22T06:21:42;15.17;;;5.43;;
3189;SDS011;1606;51.946;10.558;2022-10-22T06:24:11;12.07;;;5.13;;
3189;SDS011;1606;51.946;10.558;2022-10-22T06:26:39;14.40;;;5.40;;
3189;SDS011;1606;51.946;10.558;2022-10-22T06:29:07;8.30;;;3.93;;
3189;SDS011;1606;51.946;10.558;2022-10-22T06:31:36;9.67;;;4.80;;
3189;SDS011;1606;51.946;10.558;2022-10-22T06:34:04;8.50;;;3.80;;
3189;SDS011;1606;51.946;10.558;2022-10-22T06:36:34;10.63;;;4.33;;
3189;SDS011;1606;51.946;10.558;2022-10-22T06:39:03;8.80;;;4.00;;
3189;SDS011;1606;51.946;10.558;2022-10-22T06:41:31;14.33;;;5.87;;
3189;SDS011;1606;51.946;10.558;2022-10-22T06:43:59;11.03;;;4.63;;
3189;SDS011;1606;51.946;10.558;2022-10-22T06:46:27;15.10;;;5.00;;
3189;SDS011;1606;51.946;10.558;2022-10-22T06:48:58;11.60;;;5.03;;
3189;SDS011;1606;51.946;10.558;2022-10-22T06:51:29;11.07;;;5.23;;
3189;SDS011;1606;51.946;10.558;2022-10-22T06:53:57;10.10;;;4.70;;
3189;SDS011;1606;51.946;10.558;2022-10-22T06:56:26;11.27;;;5.70;;
3189;SDS011;1606;51.946;10.558;2022-10-22T06:58:56;15.30;;;6.20;;
3189;SDS011;1606;51.946;10.558;2022-10-22T07:01:25;14.80;;;5.80;;
3189;SDS011;1606;51.946;10.558;2022-10-22T07:03:54;9.97;;;5.57;;
3189;SDS011;1606;51.946;10.558;2022-10-22T07:06:24;8.87;;;4.33;;
3189;SDS011;1606;51.946;10.558;2022-10-22T07:08:54;15.23;;;5.17;;
3189;SDS011;1606;51.946;10.558;2022-10-22T07:11:24;9.47;;;3.90;;
3189;SDS011;1606;51.946;10.558;2022-10-22T07:13:54;12.10;;;3.87;;
3189;SDS011;1606;51.946;10.558;2022-10-22T07:16:23;9.40;;;4.60;;
3189;SDS011;1606;51.946;10.558;2022-10-22T07:18:57;9.83;;;4.93;;
3189;SDS011;1606;51.946;10.558;2022-10-22T07:21:27;9.40;;;4.73;;
3189;SDS011;1606;51.946;10.558;2022-10-22T07:23:55;11.10;;;4.03;;
3189;SDS011;1606;51.946;10.558;2022-10-22T07:26:24;10.83;;;4.60;;
3189;SDS011;1606;51.946;10.558;2022-10-22T07:28:55;11.20;;;5.07;;
3189;SDS011;1606;51.946;10.558;2022-10-22T07:31:23;14.03;;;5.07;;
3189;SDS011;1606;51.946;10.558;2022-10-22T07:33:51;10.90;;;5.20;;
3189;SDS011;1606;51.946;10.558;2022-10-22T07:36:19;10.33;;;5.00;;
3189;SDS011;1606;51.946;10.558;2022-10-22T07:38:52;11.60;;;5.13;;
3189;SDS011;1606;51.946;10.558;2022-10-22T07:41:21;13.03;;;5.93;;
3189;SDS011;1606;51.946;10.558;2022-10-22T07:43:49;13.87;;;5.70;;
3189;SDS011;1606;51.946;10.558;2022-10-22T07:46:17;12.80;;;5.47;;
3189;SDS011;1606;51.946;10.558;2022-10-22T07:48:45;15.57;;;8.60;;
3189;SDS011;1606;51.946;10.558;2022-10-22T07:51:13;10.93;;;6.30;;
3189;SDS011;1606;51.946;10.558;2022-10-22T07:53:42;12.90;;;6.03;;
3189;SDS011;1606;51.946;10.558;2022-10-22T07:56:11;15.80;;;6.83;;
3189;SDS011;1606;51.946;10.558;2022-10-22T07:58:40;11.40;;;6.80;;
3189;SDS011;1606;51.946;10.558;2022-10-22T08:01:07;13.43;;;5.90;;
3189;SDS011;1606;51.946;10.558;2022-10-22T08:03:35;11.90;;;5.07;;
3189;SDS011;1606;51.946;10.558;2022-10-22T08:06:03;9.00;;;4.70;;
3189;SDS011;1606;51.946;10.558;2022-10-22T08:08:31;15.03;;;4.60;;
3189;SDS011;1606;51.946;10.558;2022-10-22T08:11:00;13.70;;;4.60;;
3189;SDS011;1606;51.946;10.558;2022-10-22T08:13:29;14.40;;;4.43;;
3189;SDS011;1606;51.946;10.558;2022-10-22T08:15:57;8.07;;;3.07;;
3189;SDS011;1606;51.946;10.558;2022-10-22T08:18:26;13.90;;;3.97;;
3189;SDS011;1606;51.946;10.558;2022-10-22T08:20:55;9.93;;;3.70;;
3189;SDS011;1606;51.946;10.558;2022-10-22T08:23:24;9.07;;;3.73;;
3189;SDS011;1606;51.946;10.558;2022-10-22T08:25:54;8.07;;;3.67;;
3189;SDS011;1606;51.946;10.558;2022-10-22T08:28:22;15.47;;;3.17;;
3189;SDS011;1606;51.946;10.558;2022-10-22T08:30:52;32.13;;;4.13;;
3189;SDS011;1606;51.946;10.558;2022-10-22T08:33:20;9.63;;;3.43;;
3189;SDS011;1606;51.946;10.558;2022-10-22T08:35:48;8.13;;;3.33;;
3189;SDS011;1606;51.946;10.558;2022-10-22T08:38:16;8.87;;;2.80;;
3189;SDS011;1606;51.946;10.558;2022-10-22T08:40:46;9.30;;;3.73;;
3189;SDS011;1606;51.946;10.558;2022-10-22T08:43:34;7.60;;;3.70;;
3189;SDS011;1606;51.946;10.558;2022-10-22T08:46:18;9.07;;;3.10;;
3189;SDS011;1606;51.946;10.558;2022-10-22T08:48:54;7.40;;;2.70;;
3189;SDS011;1606;51.946;10.558;2022-10-22T08:51:25;9.17;;;3.40;;
3189;SDS011;1606;51.946;10.558;2022-10-22T08:54:02;8.30;;;2.70;;
3189;SDS011;1606;51.946;10.558;2022-10-22T08:56:38;8.00;;;2.40;;
3189;SDS011;1606;51.946;10.558;2022-10-22T08:59:10;7.33;;;2.73;;
3189;SDS011;1606;51.946;10.558;2022-10-22T09:01:46;7.50;;;3.67;;
3189;SDS011;1606;51.946;10.558;2022-10-22T09:04:16;8.27;;;3.17;;
3189;SDS011;1606;51.946;10.558;2022-10-22T09:06:51;10.10;;;3.13;;
3189;SDS011;1606;51.946;10.558;2022-10-22T09:09:19;7.60;;;2.57;;
3189;SDS011;1606;51.946;10.558;2022-10-22T09:11:48;7.47;;;2.43;;
3189;SDS011;1606;51.946;10.558;2022-10-22T09:14:18;7.23;;;2.40;;
3189;SDS011;1606;51.946;10.558;2022-10-22T09:16:57;7.83;;;2.67;;
3189;SDS011;1606;51.946;10.558;2022-10-22T09:19:38;9.50;;;2.90;;
3189;SDS011;1606;51.946;10.558;2022-10-22T09:22:17;11.83;;;2.70;;
3189;SDS011;1606;51.946;10.558;2022-10-22T09:24:56;7.53;;;3.17;;
3189;SDS011;1606;51.946;10.558;2022-10-22T09:27:29;8.73;;;2.80;;
3189;SDS011;1606;51.946;10.558;2022-10-22T09:29:59;9.27;;;3.17;;
3189;SDS011;1606;51.946;10.558;2022-10-22T09:32:29;10.30;;;2.53;;
3189;SDS011;1606;51.946;10.558;2022-10-22T09:34:58;9.10;;;2.43;;
3189;SDS011;1606;51.946;10.558;2022-10-22T09:37:27;7.60;;;2.63;;
3189;SDS011;1606;51.946;10.558;2022-10-22T09:39:56;7.77;;;2.10;;
3189;SDS011;1606;51.946;10.558;2022-10-22T09:42:30;10.40;;;2.67;;
3189;SDS011;1606;51.946;10.558;2022-10-22T09:45:00;9.53;;;2.60;;
3189;SDS011;1606;51.946;10.558;2022-10-22T09:47:30;9.57;;;2.23;;
3189;SDS011;1606;51.946;10.558;2022-10-22T09:50:21;13.63;;;2.97;;
3189;SDS011;1606;51.946;10.558;2022-10-22T09:52:57;13.50;;;3.03;;
3189;SDS011;1606;51.946;10.558;2022-10-22T09:55:27;9.00;;;2.30;;
3189;SDS011;1606;51.946;10.558;2022-10-22T09:57:56;11.87;;;3.10;;
3189;SDS011;1606;51.946;10.558;2022-10-22T10:00:26;7.27;;;2.07;;
3189;SDS011;1606;51.946;10.558;2022-10-22T10:02:56;7.70;;;2.30;;
3189;SDS011;1606;51.946;10.558;2022-10-22T10:05:26;6.00;;;2.37;;
3189;SDS011;1606;51.946;10.558;2022-10-22T10:07:56;7.83;;;2.30;;
3189;SDS011;1606;51.946;10.558;2022-10-22T10:10:34;6.30;;;2.43;;
3189;SDS011;1606;51.946;10.558;2022-10-22T10:13:11;9.57;;;3.40;;
3189;SDS011;1606;51.946;10.558;2022-10-22T10:15:56;7.80;;;2.47;;
3189;SDS011;1606;51.946;10.558;2022-10-22T10:18:37;7.40;;;3.37;;
3189;SDS011;1606;51.946;10.558;2022-10-22T10:21:20;7.87;;;3.20;;
3189;SDS011;1606;51.946;10.558;2022-10-22T10:23:55;9.30;;;3.57;;
3189;SDS011;1606;51.946;10.558;2022-10-22T10:26:29;9.00;;;2.57;;
3189;SDS011;1606;51.946;10.558;2022-10-22T10:29:06;7.43;;;3.27;;
3189;SDS011;1606;51.946;10.558;2022-10-22T10:31:46;10.20;;;2.80;;
3189;SDS011;1606;51.946;10.558;2022-10-22T10:34:33;10.13;;;2.80;;
3189;SDS011;1606;51.946;10.558;2022-10-22T10:37:13;7.20;;;2.23;;
3189;SDS011;1606;51.946;10.558;2022-10-22T10:39:52;15.13;;;2.93;;
3189;SDS011;1606;51.946;10.558;2022-10-22T10:42:30;6.63;;;2.33;;
3189;SDS011;1606;51.946;10.558;2022-10-22T10:45:07;8.70;;;3.27;;
3189;SDS011;1606;51.946;10.558;2022-10-22T10:47:48;10.40;;;2.77;;
3189;SDS011;1606;51.946;10.558;2022-10-22T10:50:29;8.10;;;2.67;;
3189;SDS011;1606;51.946;10.558;2022-10-22T10:53:07;8.07;;;2.57;;
3189;SDS011;1606;51.946;10.558;2022-10-22T10:55:50;8.40;;;2.47;;
3189;SDS011;1606;51.946;10.558;2022-10-22T10:58:28;12.03;;;2.47;;
3189;SDS011;1606;51.946;10.558;2022-10-22T11:01:01;6.93;;;2.20;;
3189;SDS011;1606;51.946;10.558;2022-10-22T11:03:45;9.03;;;2.83;;
3189;SDS011;1606;51.946;10.558;2022-10-22T11:06:36;7.60;;;2.10;;
3189;SDS011;1606;51.946;10.558;2022-10-22T11:09:06;5.80;;;2.07;;
3189;SDS011;1606;51.946;10.558;2022-10-22T11:11:46;6.53;;;2.17;;
3189;SDS011;1606;51.946;10.558;2022-10-22T11:14:18;7.70;;;2.30;;
3189;SDS011;1606;51.946;10.558;2022-10-22T11:16:54;9.60;;;2.20;;
3189;SDS011;1606;51.946;10.558;2022-10-22T11:19:28;8.63;;;2.10;;
3189;SDS011;1606;51.946;10.558;2022-10-22T11:22:22;9.10;;;2.10;;
3189;SDS011;1606;51.946;10.558;2022-10-22T11:24:56;6.07;;;1.90;;
3189;SDS011;1606;51.946;10.558;2022-10-22T11:27:29;7.43;;;2.20;;
3189;SDS011;1606;51.946;10.558;2022-10-22T11:30:04;7.60;;;2.10;;
3189;SDS011;1606;51.946;10.558;2022-10-22T11:32:38;6.40;;;1.80;;
3189;SDS011;1606;51.946;10.558;2022-10-22T11:35:11;6.60;;;2.03;;
3189;SDS011;1606;51.946;10.558;2022-10-22T11:37:43;6.20;;;2.10;;
3189;SDS011;1606;51.946;10.558;2022-10-22T11:40:13;7.87;;;3.10;;
3189;SDS011;1606;51.946;10.558;2022-10-22T11:42:45;9.73;;;2.27;;
3189;SDS011;1606;51.946;10.558;2022-10-22T11:45:29;9.50;;;2.07;;
3189;SDS011;1606;51.946;10.558;2022-10-22T11:47:59;6.47;;;2.13;;
3189;SDS011;1606;51.946;10.558;2022-10-22T11:50:44;10.83;;;3.20;;
3189;SDS011;1606;51.946;10.558;2022-10-22T11:53:18;6.40;;;2.10;;
3189;SDS011;1606;51.946;10.558;2022-10-22T11:55:52;6.70;;;1.90;;
3189;SDS011;1606;51.946;10.558;2022-10-22T11:58:29;11.07;;;4.03;;
3189;SDS011;1606;51.946;10.558;2022-10-22T12:01:17;7.03;;;1.87;;
3189;SDS011;1606;51.946;10.558;2022-10-22T12:03:50;6.87;;;1.90;;
3189;SDS011;1606;51.946;10.558;2022-10-22T12:06:20;5.80;;;2.00;;
3189;SDS011;1606;51.946;10.558;2022-10-22T12:08:56;8.33;;;2.40;;
3189;SDS011;1606;51.946;10.558;2022-10-22T12:11:34;12.77;;;2.77;;
3189;SDS011;1606;51.946;10.558;2022-10-22T12:14:12;7.80;;;2.17;;
3189;SDS011;1606;51.946;10.558;2022-10-22T12:16:44;6.50;;;2.00;;
3189;SDS011;1606;51.946;10.558;2022-10-22T12:19:23;8.00;;;2.47;;
3189;SDS011;1606;51.946;10.558;2022-10-22T12:21:54;7.23;;;2.10;;
3189;SDS011;1606;51.946;10.558;2022-10-22T12:24:28;8.60;;;2.33;;
3189;SDS011;1606;51.946;10.558;2022-10-22T12:27:00;7.20;;;2.17;;
3189;SDS011;1606;51.946;10.558;2022-10-22T12:29:30;6.43;;;1.67;;
3189;SDS011;1606;51.946;10.558;2022-10-22T12:32:01;7.30;;;2.20;;
3189;SDS011;1606;51.946;10.558;2022-10-22T12:34:30;11.03;;;2.50;;
3189;SDS011;1606;51.946;10.558;2022-10-22T12:36:58;6.67;;;2.23;;
3189;SDS011;1606;51.946;10.558;2022-10-22T12:39:27;9.03;;;1.97;;
3189;SDS011;1606;51.946;10.558;2022-10-22T12:41:55;8.37;;;1.83;;
3189;SDS011;1606;51.946;10.558;2022-10-22T12:44:22;8.97;;;2.10;;
3189;SDS011;1606;51.946;10.558;2022-10-22T12:46:50;6.47;;;2.30;;
3189;SDS011;1606;51.946;10.558;2022-10-22T12:49:24;12.00;;;2.70;;
3189;SDS011;1606;51.946;10.558;2022-10-22T12:51:59;9.85;;;1.90;;
3189;SDS011;1606;51.946;10.558;2022-10-22T12:54:30;9.43;;;2.40;;
3189;SDS011;1606;51.946;10.558;2022-10-22T12:56:59;8.03;;;2.30;;
3189;SDS011;1606;51.946;10.558;2022-10-22T12:59:28;7.60;;;2.43;;
3189;SDS011;1606;51.946;10.558;2022-10-22T13:02:00;7.87;;;1.93;;
3189;SDS011;1606;51.946;10.558;2022-10-22T13:04:36;8.90;;;2.10;;
3189;SDS011;1606;51.946;10.558;2022-10-22T13:09:57;7.90;;;2.30;;
3189;SDS011;1606;51.946;10.558;2022-10-22T13:12:26;16.20;;;2.57;;
3189;SDS011;1606;51.946;10.558;2022-10-22T13:17:47;9.13;;;2.23;;
3189;SDS011;1606;51.946;10.558;2022-10-22T13:20:18;8.27;;;2.67;;
3189;SDS011;1606;51.946;10.558;2022-10-22T13:22:54;6.93;;;1.97;;
3189;SDS011;1606;51.946;10.558;2022-10-22T13:25:28;8.00;;;2.67;;
3189;SDS011;1606;51.946;10.558;2022-10-22T13:27:57;8.53;;;2.93;;
3189;SDS011;1606;51.946;10.558;2022-10-22T13:30:27;7.17;;;1.87;;
3189;SDS011;1606;51.946;10.558;2022-10-22T13:32:57;7.20;;;2.73;;
3189;SDS011;1606;51.946;10.558;2022-10-22T13:35:27;8.50;;;2.30;;
3189;SDS011;1606;51.946;10.558;2022-10-22T13:37:58;9.73;;;2.20;;
3189;SDS011;1606;51.946;10.558;2022-10-22T13:40:28;14.83;;;2.60;;
3189;SDS011;1606;51.946;10.558;2022-10-22T13:42:56;8.80;;;1.97;;
3189;SDS011;1606;51.946;10.558;2022-10-22T13:45:23;8.63;;;2.23;;
3189;SDS011;1606;51.946;10.558;2022-10-22T13:47:51;7.20;;;2.50;;
3189;SDS011;1606;51.946;10.558;2022-10-22T13:50:20;6.63;;;2.13;;
3189;SDS011;1606;51.946;10.558;2022-10-22T13:52:49;9.73;;;2.43;;
3189;SDS011;1606;51.946;10.558;2022-10-22T13:55:19;15.50;;;2.00;;
3189;SDS011;1606;51.946;10.558;2022-10-22T13:57:52;9.97;;;1.63;;
3189;SDS011;1606;51.946;10.558;2022-10-22T14:00:21;7.80;;;2.37;;
3189;SDS011;1606;51.946;10.558;2022-10-22T14:02:52;9.23;;;2.20;;
3189;SDS011;1606;51.946;10.558;2022-10-22T14:05:23;6.53;;;1.70;;
3189;SDS011;1606;51.946;10.558;2022-10-22T14:07:51;9.60;;;1.80;;
3189;SDS011;1606;51.946;10.558;2022-10-22T14:10:20;8.33;;;2.50;;
3189;SDS011;1606;51.946;10.558;2022-10-22T14:12:49;11.60;;;2.00;;
3189;SDS011;1606;51.946;10.558;2022-10-22T14:15:22;10.67;;;3.10;;
3189;SDS011;1606;51.946;10.558;2022-10-22T14:17:52;9.53;;;2.07;;
3189;SDS011;1606;51.946;10.558;2022-10-22T14:20:23;6.73;;;2.23;;
3189;SDS011;1606;51.946;10.558;2022-10-22T14:22:53;10.20;;;2.20;;
3189;SDS011;1606;51.946;10.558;2022-10-22T14:25:22;6.23;;;2.00;;
3189;SDS011;1606;51.946;10.558;2022-10-22T14:27:52;8.57;;;1.90;;
3189;SDS011;1606;51.946;10.558;2022-10-22T14:30:22;8.60;;;2.13;;
3189;SDS011;1606;51.946;10.558;2022-10-22T14:32:52;6.40;;;1.83;;
3189;SDS011;1606;51.946;10.558;2022-10-22T14:35:20;6.30;;;1.97;;
3189;SDS011;1606;51.946;10.558;2022-10-22T14:37:48;7.13;;;1.47;;
3189;SDS011;1606;51.946;10.558;2022-10-22T14:40:17;10.03;;;2.10;;
3189;SDS011;1606;51.946;10.558;2022-10-22T14:42:47;6.90;;;2.10;;
3189;SDS011;1606;51.946;10.558;2022-10-22T14:45:18;8.83;;;2.40;;
3189;SDS011;1606;51.946;10.558;2022-10-22T14:47:47;8.17;;;2.27;;
3189;SDS011;1606;51.946;10.558;2022-10-22T14:50:15;7.80;;;2.00;;
3189;SDS011;1606;51.946;10.558;2022-10-22T14:52:44;9.53;;;2.30;;
3189;SDS011;1606;51.946;10.558;2022-10-22T14:55:12;7.20;;;1.83;;
3189;SDS011;1606;51.946;10.558;2022-10-22T14:57:41;10.63;;;1.93;;
3189;SDS011;1606;51.946;10.558;2022-10-22T15:00:11;10.97;;;1.80;;
3189;SDS011;1606;51.946;10.558;2022-10-22T15:02:42;9.60;;;2.30;;
3189;SDS011;1606;51.946;10.558;2022-10-22T15:05:10;6.10;;;2.03;;
3189;SDS011;1606;51.946;10.558;2022-10-22T15:07:38;7.83;;;3.30;;
3189;SDS011;1606;51.946;10.558;2022-10-22T15:10:07;7.67;;;2.27;;
3189;SDS011;1606;51.946;10.558;2022-10-22T15:12:36;9.23;;;2.73;;
3189;SDS011;1606;51.946;10.558;2022-10-22T15:15:04;8.60;;;2.27;;
3189;SDS011;1606;51.946;10.558;2022-10-22T15:17:33;7.73;;;1.80;;
3189;SDS011;1606;51.946;10.558;2022-10-22T15:20:02;19.60;;;3.67;;
3189;SDS011;1606;51.946;10.558;2022-10-22T15:22:31;10.70;;;3.07;;
3189;SDS011;1606;51.946;10.558;2022-10-22T15:25:01;9.73;;;2.40;;